Back to top

Rock Springs, WY weather

Rock Springs-Sweetwater County Airport, Rock Springs, WY: 7/02/2020 11:54
Visibility10 statute milesclear sky
View 7-Day Forecast
Area Summary
Sky/CloudsSky Clear
Weather [last 24 hours]None
Pressure30.16 in.Hg (1021 hPa)
3-hour Pressure Tendency0.01181 in.Hg (0.4 hPa) Increasing, then decreasing
Dew Point28 °F (-2.2 °C)
Relative Humidity17.6 %
Temperature75 °F (23.9 °C)red thermometer
Reading TimeMinimum to Maximum Temperature
6-hr ending 7/2@11:5453.1 °F to 75.9 °F (11.7 °C to 24.4 °C)
6-hr ending 7/2@05:5455 °F to 61 °F (12.8 °C to 16.1 °C)
6-hr ending 7/1@23:5459 °F to 75 °F (15 °C to 23.9 °C)
6-hr ending 7/1@17:5469.1 °F to 75.9 °F (20.6 °C to 24.4 °C)
24-hr ending 7/2@00:5439.9 °F to 75.9 °F (4.4 °C to 24.4 °C)
Wind15 MPH (13 KT) gusting to 25.3 MPH (22 KT)green arrow pointing 270 degrees
Wind FromWest (260 Degrees)
Rolling 24-hr Peak Wind40.3 MPH (35 KT) on 7/1@12:33
Rolling 24-hr Peak Wind FromSouthwest (220 Degrees)
Twilight Begins05:12Sunshine Yesterday
Sunrise05:46N/A
Sunset20:56
Twilight Ends21:29
METARKRKS 021754Z AUTO 26013G22KT 10SM CLR 24/M02 A3016 RMK AO2 SLP127 T02391022 10244 20117 50004
Tags: